Creston, South Carolina
Current Conditions -  °F | °C
As of 6:40 PM on Saturday 20 Dec 2014 (Local Time) from KOGB Reporting Station
Haze Haze  
Wind Chill: 44°   Ceiling: 700
Heat Index: 47°   Visibility: 3mi
Dew Point: 44°   Wind: 7mph
Humidity: 90%   Direction: 60°ENE
Pressure: 30.22"   Gusts: NA
Location:  33.5645°N, 80.6572°W
Report Text: KOGB 202340Z AUTO 06006KT 3SM BR OVC007 08/07 A3022 RMK AO2 CIG 004V010 T00830067
Loading
Personal Weather Stations






























Interactive Weather Map New forecast layout! Learn more

10-Day Weather Forecast

Advertisements
Track Severe Weather on mobile